Ginys del Meteocat

Dades de l'estació automàtica Riudecanyes

?
?
Resum diari 22:30 TU
Dades diàries de l'estació meteorològica
Temperatura mitjana 10.0 °C
Temperatura màxima 12.7 °C 14:45 TU
Temperatura mínima 7.1 °C 3:32 TU
Humitat relativa mitjana 88%
Precipitació acumulada 0.0 mm
Ratxa màxima del vent (10 m) 13.0 km/h - 333º 1:26 TU
Irradiació solar global 2.9 MJ/m2

El tram horari està expressat en Temps Universal (TU). Cal sumar una hora en horari d'hivern i dues en horari d'estiu per passar a l'hora oficial.

Riudecanyes

Metadades estació meteorol´gica
Municipi Riudecanyes
Comarca Baix Camp
Altitud 170 m
Data alta 06.02.2019
Estat actual Operativa
Dades de període
Període
TU
TM
°C
TX
°C
TN
°C
HRM
%
PPT
mm
VVM (10 m)
km/h
DVM (10 m)
graus
VVX (10 m)
km/h
RS
W/m2
00:00 - 00:30 8.6 8.7 8.5 90 0.0 6.5 326 11.2 0
00:30 - 01:00 8.4 8.5 8.3 91 0.0 5.0 328 9.0 0
01:00 - 01:30 8.6 8.7 8.3 90 0.0 8.3 331 13.0 0
01:30 - 02:00 8.5 8.6 8.3 90 0.0 7.6 335 10.4 0
02:00 - 02:30 8.2 8.4 8.1 91 0.0 8.3 333 13.0 0
02:30 - 03:00 7.5 8.2 7.2 93 0.0 3.2 332 7.2 0
03:00 - 03:30 7.3 7.5 7.2 95 0.0 6.1 339 9.4 0
03:30 - 04:00 7.5 7.6 7.1 95 0.0 5.0 340 8.6 0
04:00 - 04:30 7.9 8.2 7.6 94 0.0 6.5 336 9.4 0
04:30 - 05:00 8.1 8.3 8.0 94 0.0 5.4 331 8.6 0
05:00 - 05:30 8.5 8.7 8.2 92 0.0 8.3 330 13.0 0
05:30 - 06:00 8.8 9.0 8.6 92 0.0 8.3 330 12.2 0
06:00 - 06:30 8.6 8.9 8.4 92 0.0 7.6 328 11.5 0
06:30 - 07:00 8.9 9.0 8.8 91 0.0 7.6 333 11.2 0
07:00 - 07:30 8.7 8.9 8.5 91 0.0 5.4 340 11.5 1
07:30 - 08:00 8.9 9.1 8.5 91 0.0 4.3 329 9.4 11
08:00 - 08:30 9.0 9.1 8.8 91 0.0 2.2 340 5.0 24
08:30 - 09:00 9.6 10.0 9.1 89 0.0 1.4 359 4.3 35
09:00 - 09:30 10.2 10.5 10.0 87 0.0 2.5 19 6.5 68
09:30 - 10:00 10.8 11.0 10.6 85 0.0 3.2 60 7.2 81
10:00 - 10:30 11.1 11.2 11.0 84 0.0 4.7 67 12.6 98
10:30 - 11:00 11.2 11.4 11.0 83 0.0 4.7 40 10.4 116
11:00 - 11:30 11.6 11.6 11.4 82 0.0 3.6 46 9.4 102
11:30 - 12:00 11.4 11.6 11.2 83 0.0 1.1 47 5.0 68
12:00 - 12:30 11.9 12.0 11.6 79 0.0 2.2 32 7.9 122
12:30 - 13:00 12.1 12.2 12.0 75 0.0 4.0 34 9.0 124
13:00 - 13:30 12.2 12.3 12.1 74 0.0 3.2 50 8.3 120
13:30 - 14:00 12.3 12.4 12.2 74 0.0 3.6 95 6.8 138
14:00 - 14:30 12.4 12.6 12.4 74 0.0 4.7 114 10.4 169
14:30 - 15:00 12.5 12.7 12.4 76 0.0 3.6 108 7.9 145
15:00 - 15:30 12.2 12.4 12.2 77 0.0 1.8 137 4.0 92
15:30 - 16:00 12.3 12.3 12.2 77 0.0 0.7 146 2.2 83
16:00 - 16:30 12.1 12.3 11.8 80 0.0 0.4 127 1.8 43
16:30 - 17:00 11.3 11.8 11.0 87 0.0 2.2 180 5.4 10
17:00 - 17:30 10.8 11.0 10.3 90 0.0 2.2 260 4.0 0
17:30 - 18:00 10.2 10.3 10.1 94 0.0 2.2 276 3.6 0
18:00 - 18:30 10.3 10.4 10.2 93 0.0 2.5 304 6.8 0
18:30 - 19:00 10.6 10.7 10.3 90 0.0 5.4 330 7.2 0
19:00 - 19:30 10.7 10.7 10.5 90 0.0 5.4 324 8.3 0
19:30 - 20:00 10.3 10.5 10.1 91 0.0 6.5 330 9.4 0
20:00 - 20:30 10.0 10.2 9.8 92 0.0 5.8 325 9.0 0
20:30 - 21:00 9.7 9.8 9.6 93 0.0 6.8 328 9.4 0
21:00 - 21:30 9.8 10.2 9.5 92 0.0 7.6 329 11.5 0
21:30 - 22:00 9.6 10.0 9.3 91 0.0 7.6 333 12.2 0
22:00 - 22:30 9.5 9.6 9.3 92 0.0 7.9 325 11.5 0
22:30 - 23:00 9.2 9.5 8.9 92 0.0 7.9 326 12.2 0

Les dades en taronja només han passat un control de qualitat automàtic. Resta pendent la seva validació definitiva.